createdAt,value
2023-05-10T00:00:35.447Z,80.29
2023-05-10T00:03:12.005Z,80.80
2023-05-10T00:05:40.304Z,81.38
2023-05-10T00:08:08.678Z,81.05
2023-05-10T00:10:38.492Z,81.32
2023-05-10T00:13:06.736Z,82.87
2023-05-10T00:15:35.873Z,83.05
2023-05-10T00:18:04.320Z,82.36
2023-05-10T00:20:32.616Z,81.21
2023-05-10T00:23:00.903Z,80.81
2023-05-10T00:25:29.075Z,81.09
2023-05-10T00:27:58.407Z,80.94
2023-05-10T00:30:26.765Z,81.23
2023-05-10T00:32:55.061Z,82.70
2023-05-10T00:35:23.900Z,83.35
2023-05-10T00:37:52.096Z,82.56
2023-05-10T00:40:20.321Z,81.45
2023-05-10T00:42:50.701Z,81.16
2023-05-10T00:45:18.879Z,81.11
2023-05-10T00:47:47.506Z,81.30
2023-05-10T00:50:16.792Z,81.59
2023-05-10T00:52:45.356Z,82.03
2023-05-10T00:55:13.721Z,81.67
2023-05-10T00:57:42.823Z,82.31
2023-05-10T01:00:12.529Z,81.52
2023-05-10T01:02:42.623Z,82.66
2023-05-10T01:05:10.987Z,82.03
2023-05-10T01:07:39.804Z,81.80
2023-05-10T01:10:09.640Z,82.06
2023-05-10T01:12:40.890Z,81.53
2023-05-10T01:15:12.067Z,82.09
2023-05-10T01:17:43.161Z,81.19
2023-05-10T01:20:12.990Z,80.76
2023-05-10T01:23:26.101Z,81.31
2023-05-10T01:26:15.269Z,83.92
2023-05-10T01:29:21.638Z,83.98
2023-05-10T01:32:07.933Z,83.30
2023-05-10T01:34:42.564Z,82.51
2023-05-10T01:37:16.797Z,82.60
2023-05-10T01:39:55.818Z,82.25
2023-05-10T01:42:29.993Z,81.57
2023-05-10T01:45:08.643Z,81.47
2023-05-10T01:47:43.258Z,81.92
2023-05-10T01:50:17.897Z,82.46
2023-05-10T01:52:52.512Z,82.36
2023-05-10T01:55:24.463Z,82.28
2023-05-10T01:58:07.036Z,81.74
2023-05-10T02:00:36.698Z,81.61
2023-05-10T02:03:09.107Z,81.37
2023-05-10T02:05:40.843Z,81.35
2023-05-10T02:08:10.855Z,81.60
2023-05-10T02:10:40.665Z,81.60
2023-05-10T02:13:11.352Z,81.64
2023-05-10T02:15:41.195Z,82.37
2023-05-10T02:18:12.040Z,82.57
2023-05-10T02:20:40.730Z,82.18
2023-05-10T02:23:10.944Z,82.19
2023-05-10T02:25:40.540Z,82.09
2023-05-10T02:28:09.990Z,81.87
2023-05-10T02:30:38.756Z,81.70
2023-05-10T02:33:08.672Z,81.64
2023-05-10T02:35:39.514Z,81.63
2023-05-10T02:38:10.375Z,82.59
2023-05-10T02:40:40.088Z,83.20
2023-05-10T02:43:13.343Z,82.86
2023-05-10T02:45:42.848Z,82.93
2023-05-10T02:48:11.473Z,83.03
2023-05-10T02:50:45.147Z,82.35
2023-05-10T02:53:20.472Z,82.23
2023-05-10T02:55:53.029Z,82.77
2023-05-10T02:58:22.762Z,83.81
2023-05-10T03:00:50.931Z,84.34
2023-05-10T03:03:19.524Z,83.69
2023-05-10T03:05:47.814Z,82.71
2023-05-10T03:08:16.489Z,82.58
2023-05-10T03:11:14.260Z,83.40
2023-05-10T03:14:09.989Z,84.14
2023-05-10T03:16:48.254Z,84.15
2023-05-10T03:19:28.746Z,84.40
2023-05-10T03:22:01.346Z,84.27
2023-05-10T03:24:31.577Z,83.47
2023-05-10T03:27:03.928Z,83.23
2023-05-10T03:29:33.127Z,83.25
2023-05-10T03:32:01.598Z,83.64
2023-05-10T03:34:32.686Z,83.72
2023-05-10T03:37:01.016Z,83.52
2023-05-10T03:39:30.241Z,83.60
2023-05-10T03:41:59.921Z,82.99
2023-05-10T03:44:28.308Z,82.64
2023-05-10T03:46:58.216Z,82.45
2023-05-10T03:49:26.497Z,82.05
2023-05-10T03:51:54.675Z,81.59
2023-05-10T03:54:22.859Z,80.93
2023-05-10T03:56:50.981Z,80.27
2023-05-10T03:59:19.514Z,79.95
2023-05-10T04:01:47.710Z,80.04
2023-05-10T04:04:16.725Z,79.91
2023-05-10T04:06:46.107Z,79.89
2023-05-10T04:09:14.876Z,79.82
2023-05-10T04:11:43.138Z,79.14
2023-05-10T04:14:11.623Z,78.65
2023-05-10T04:16:39.844Z,78.64
2023-05-10T04:19:08.172Z,78.67
2023-05-10T04:21:36.246Z,78.40
2023-05-10T04:24:04.816Z,77.19
2023-05-10T04:26:32.899Z,76.44
2023-05-10T04:29:01.174Z,76.20
2023-05-10T04:31:29.635Z,75.57
2023-05-10T04:33:57.828Z,75.50
2023-05-10T04:36:26.018Z,74.26
2023-05-10T04:38:54.383Z,73.58
2023-05-10T04:41:22.446Z,72.93
2023-05-10T04:43:50.620Z,72.38
2023-05-10T04:46:18.839Z,72.51
2023-05-10T04:48:47.078Z,72.34
2023-05-10T04:51:15.248Z,71.49
2023-05-10T04:53:46.612Z,71.17
2023-05-10T04:56:23.274Z,71.02
2023-05-10T04:58:51.342Z,69.53
2023-05-10T05:01:19.650Z,69.04
2023-05-10T05:03:48.026Z,67.59
2023-05-10T05:06:16.478Z,66.68
2023-05-10T05:08:44.661Z,66.35
2023-05-10T05:11:12.708Z,65.43
2023-05-10T05:13:40.801Z,64.26
2023-05-10T05:16:09.085Z,63.00
2023-05-10T05:18:37.359Z,63.14
2023-05-10T05:21:16.309Z,62.50
2023-05-10T05:23:44.921Z,62.91
2023-05-10T05:26:13.259Z,61.80
2023-05-10T05:28:41.445Z,61.62
2023-05-10T05:31:09.871Z,60.42
2023-05-10T05:33:38.785Z,60.71
2023-05-10T05:36:07.283Z,59.25
2023-05-10T05:38:35.548Z,58.82
2023-05-10T05:41:04.117Z,58.58
2023-05-10T05:43:32.200Z,56.59
2023-05-10T05:46:00.505Z,56.56
2023-05-10T05:48:30.388Z,56.51
2023-05-10T05:50:58.974Z,56.27
2023-05-10T05:53:27.360Z,56.45
2023-05-10T05:55:57.273Z,56.29
2023-05-10T05:58:26.712Z,56.22
2023-05-10T06:00:55.176Z,55.25
2023-05-10T06:03:23.530Z,54.93
2023-05-10T06:05:51.813Z,54.74
2023-05-10T06:08:19.894Z,54.07
2023-05-10T06:10:48.056Z,52.54
2023-05-10T06:13:16.800Z,53.26
2023-05-10T06:15:44.965Z,53.12
2023-05-10T06:18:13.235Z,52.20
2023-05-10T06:20:43.020Z,53.08
2023-05-10T06:23:11.180Z,52.49
2023-05-10T06:25:39.424Z,51.23
2023-05-10T06:28:07.761Z,51.31
2023-05-10T06:30:37.665Z,51.03
2023-05-10T06:33:06.179Z,50.30
2023-05-10T06:35:35.348Z,50.00
2023-05-10T06:38:03.626Z,50.18
2023-05-10T06:40:31.702Z,50.04
2023-05-10T06:42:59.848Z,50.48
2023-05-10T06:45:28.023Z,51.07
2023-05-10T06:47:56.340Z,50.54
2023-05-10T06:50:24.675Z,49.57
2023-05-10T06:52:53.232Z,47.98
2023-05-10T06:55:21.553Z,45.20
2023-05-10T06:57:52.812Z,45.08
2023-05-10T07:00:21.591Z,47.43
2023-05-10T07:02:50.214Z,48.78
2023-05-10T07:05:18.909Z,50.34
2023-05-10T07:07:47.474Z,49.50
2023-05-10T07:10:15.917Z,48.77
2023-05-10T07:12:44.345Z,49.25
2023-05-10T07:15:12.566Z,50.21
2023-05-10T07:17:43.068Z,50.86
2023-05-10T07:20:12.920Z,52.31
2023-05-10T07:22:41.388Z,50.77
2023-05-10T07:25:10.188Z,50.87
2023-05-10T07:27:41.322Z,52.24
2023-05-10T07:30:10.267Z,51.65
2023-05-10T07:32:38.589Z,48.98
2023-05-10T07:35:07.913Z,48.12
2023-05-10T07:37:36.127Z,47.17
2023-05-10T07:40:04.852Z,44.74
2023-05-10T07:42:33.129Z,44.55
2023-05-10T07:45:01.305Z,44.09
2023-05-10T07:47:29.450Z,40.85
2023-05-10T07:49:57.695Z,41.72
2023-05-10T07:52:26.037Z,41.46
2023-05-10T07:54:54.813Z,41.56
2023-05-10T07:57:22.991Z,40.19
2023-05-10T07:59:51.173Z,39.48
2023-05-10T08:02:19.488Z,38.75
2023-05-10T08:04:47.820Z,39.01
2023-05-10T08:07:16.067Z,40.29
2023-05-10T08:09:44.384Z,40.08
2023-05-10T08:12:12.651Z,40.48
2023-05-10T08:14:41.848Z,40.15
2023-05-10T08:17:10.122Z,39.99
2023-05-10T08:19:38.198Z,40.24
2023-05-10T08:22:06.680Z,42.27
2023-05-10T08:24:39.356Z,42.17
2023-05-10T08:27:07.555Z,42.67
2023-05-10T08:29:49.020Z,42.32
2023-05-10T08:32:19.056Z,42.39
2023-05-10T08:34:47.314Z,42.52
2023-05-10T08:37:15.892Z,41.20
2023-05-10T08:39:44.064Z,41.84
2023-05-10T08:42:13.712Z,42.37
2023-05-10T08:44:42.881Z,40.10
2023-05-10T08:47:11.918Z,41.51
2023-05-10T08:49:40.968Z,40.88
2023-05-10T08:52:10.767Z,39.70
2023-05-10T08:54:39.377Z,40.93
2023-05-10T08:57:07.753Z,40.36
2023-05-10T08:59:35.919Z,38.47
2023-05-10T09:02:06.000Z,37.80
2023-05-10T09:04:34.178Z,38.25
2023-05-10T09:07:02.897Z,40.34
2023-05-10T09:09:32.265Z,40.23
2023-05-10T09:12:00.989Z,39.92
2023-05-10T09:14:29.774Z,42.08
2023-05-10T09:16:58.187Z,41.52
2023-05-10T09:19:26.438Z,39.44
2023-05-10T09:21:54.606Z,40.32
2023-05-10T09:24:27.872Z,40.11
2023-05-10T09:26:59.543Z,39.55
2023-05-10T09:29:27.733Z,40.53
2023-05-10T09:31:56.516Z,39.75
2023-05-10T09:34:32.523Z,37.91
2023-05-10T09:37:02.675Z,38.26
2023-05-10T09:39:40.187Z,38.11
2023-05-10T09:42:10.206Z,38.42
2023-05-10T09:44:39.412Z,38.29
2023-05-10T09:47:07.604Z,39.53
2023-05-10T09:49:36.171Z,39.65
2023-05-10T09:52:09.015Z,38.09
2023-05-10T09:54:37.587Z,38.10
2023-05-10T09:57:06.626Z,37.86
2023-05-10T09:59:36.452Z,37.28
2023-05-10T10:02:04.988Z,36.73
2023-05-10T10:04:33.985Z,37.69
2023-05-10T10:07:05.191Z,38.73
2023-05-10T10:09:36.042Z,38.47
2023-05-10T10:12:05.067Z,39.67
2023-05-10T10:14:33.266Z,38.38
2023-05-10T10:19:35.466Z,39.28
2023-05-10T10:22:03.991Z,40.37
2023-05-10T10:24:32.312Z,40.56
2023-05-10T10:27:29.877Z,39.51
2023-05-10T10:30:36.680Z,39.14
2023-05-10T10:33:28.951Z,40.46
2023-05-10T10:36:01.585Z,41.01
2023-05-10T10:38:52.788Z,39.43
2023-05-10T10:41:30.189Z,39.20
2023-05-10T10:44:27.472Z,38.83
2023-05-10T10:47:07.452Z,37.94
2023-05-10T10:49:42.126Z,38.22
2023-05-10T10:52:34.298Z,37.80
2023-05-10T10:55:02.755Z,37.29
2023-05-10T10:57:44.832Z,37.24
2023-05-10T11:00:28.391Z,38.28
2023-05-10T11:03:07.422Z,37.53
2023-05-10T11:05:47.674Z,36.92
2023-05-10T11:08:20.745Z,37.71
2023-05-10T11:11:08.341Z,39.63
2023-05-10T11:13:42.184Z,39.61
2023-05-10T11:16:18.081Z,39.08
2023-05-10T11:18:59.981Z,40.42
2023-05-10T11:21:28.924Z,41.02
2023-05-10T11:23:58.917Z,39.57
2023-05-10T11:26:36.828Z,40.59
2023-05-10T11:29:06.246Z,39.32
2023-05-10T11:31:35.335Z,39.36
2023-05-10T11:34:03.524Z,39.63
2023-05-10T11:36:37.146Z,39.86
2023-05-10T11:39:07.237Z,38.10
2023-05-10T11:41:35.515Z,37.05
2023-05-10T11:44:04.110Z,37.85
2023-05-10T11:46:32.778Z,36.84
2023-05-10T11:49:03.166Z,37.40
2023-05-10T11:51:36.215Z,38.11
2023-05-10T11:54:10.368Z,38.37
2023-05-10T11:56:40.428Z,36.93
2023-05-10T11:59:09.474Z,37.14
2023-05-10T12:01:37.812Z,37.58
2023-05-10T12:04:06.489Z,38.82
2023-05-10T12:06:41.637Z,38.37
2023-05-10T12:09:10.208Z,36.72
2023-05-10T12:11:43.872Z,35.52
2023-05-10T12:14:12.800Z,34.95
2023-05-10T12:16:41.399Z,35.86
2023-05-10T12:19:10.132Z,36.03
2023-05-10T12:21:40.157Z,36.51
2023-05-10T12:24:08.980Z,35.44
2023-05-10T12:26:38.075Z,35.80
2023-05-10T12:29:20.071Z,35.18
2023-05-10T12:31:57.074Z,36.25
2023-05-10T12:34:32.518Z,37.43
2023-05-10T12:37:02.228Z,35.61
2023-05-10T12:39:45.854Z,36.23
2023-05-10T12:42:14.152Z,35.47
2023-05-10T12:44:42.579Z,36.64
2023-05-10T12:47:10.780Z,35.93
2023-05-10T12:49:39.363Z,35.79
2023-05-10T12:52:07.784Z,34.96
2023-05-10T12:54:36.739Z,35.80
2023-05-10T12:57:05.007Z,36.32
2023-05-10T12:59:33.453Z,36.49
2023-05-10T13:02:02.589Z,36.20
2023-05-10T13:04:30.784Z,35.95
2023-05-10T13:07:00.219Z,36.45
2023-05-10T13:09:30.752Z,38.33
2023-05-10T13:11:59.182Z,38.17
2023-05-10T13:14:27.664Z,38.29
2023-05-10T13:16:56.002Z,37.54
2023-05-10T13:19:24.615Z,36.91
2023-05-10T13:21:52.893Z,37.13
2023-05-10T13:24:21.684Z,38.70
2023-05-10T13:26:49.864Z,38.49
2023-05-10T13:29:22.228Z,37.63
2023-05-10T13:31:50.749Z,38.50
2023-05-10T13:34:25.365Z,39.10
2023-05-10T13:36:55.001Z,38.98
2023-05-10T13:39:23.628Z,37.86
2023-05-10T13:41:52.344Z,38.91
2023-05-10T13:44:22.487Z,39.30
2023-05-10T13:46:51.131Z,37.92
2023-05-10T13:49:19.402Z,37.03
2023-05-10T13:51:48.089Z,36.49
2023-05-10T13:54:16.255Z,37.91
2023-05-10T13:56:45.158Z,37.59
2023-05-10T13:59:13.312Z,37.88
2023-05-10T14:01:42.387Z,37.09
2023-05-10T14:04:11.656Z,37.98
2023-05-10T14:06:40.010Z,37.15
2023-05-10T14:09:08.693Z,36.21
2023-05-10T14:11:37.081Z,38.84
2023-05-10T14:14:06.165Z,38.74
2023-05-10T14:16:34.388Z,40.31
2023-05-10T14:19:02.930Z,42.71
2023-05-10T14:21:31.913Z,42.43
2023-05-10T14:24:00.189Z,42.85
2023-05-10T14:26:28.571Z,43.73
2023-05-10T14:28:56.894Z,44.27
2023-05-10T14:31:26.816Z,44.36
2023-05-10T14:33:55.146Z,45.24
2023-05-10T14:36:23.828Z,45.29
2023-05-10T14:38:52.825Z,44.78
2023-05-10T14:41:21.196Z,46.70
2023-05-10T14:43:49.527Z,47.59
2023-05-10T14:46:18.327Z,46.85
2023-05-10T14:48:46.947Z,46.27
2023-05-10T14:51:15.373Z,47.67
2023-05-10T14:53:43.944Z,47.74
2023-05-10T14:56:12.183Z,49.21
2023-05-10T14:58:40.251Z,50.69
2023-05-10T15:01:08.675Z,51.14
2023-05-10T15:03:37.689Z,49.52
2023-05-10T15:06:07.236Z,50.62
2023-05-10T15:08:36.125Z,51.77
2023-05-10T15:11:04.402Z,50.59
2023-05-10T15:13:32.580Z,50.27
2023-05-10T15:16:01.311Z,51.49
2023-05-10T15:18:29.559Z,51.84
2023-05-10T15:20:59.145Z,50.82
2023-05-10T15:23:31.008Z,50.32
2023-05-10T15:25:59.178Z,51.51
2023-05-10T15:28:27.348Z,52.84
2023-05-10T15:30:56.493Z,52.89
2023-05-10T15:33:25.658Z,52.09
2023-05-10T15:35:54.796Z,52.34
2023-05-10T15:38:23.858Z,53.29
2023-05-10T15:40:52.116Z,53.03
2023-05-10T15:43:20.389Z,52.59
2023-05-10T15:45:48.669Z,52.29
2023-05-10T15:48:17.563Z,53.32
2023-05-10T15:50:46.139Z,53.43
2023-05-10T15:53:14.324Z,54.13
2023-05-10T15:55:42.593Z,54.30
2023-05-10T15:58:11.499Z,52.58
2023-05-10T16:00:39.706Z,53.01
2023-05-10T16:03:08.637Z,52.97
2023-05-10T16:05:37.032Z,53.46
2023-05-10T16:08:05.235Z,54.32
2023-05-10T16:10:33.588Z,55.09
2023-05-10T16:13:03.508Z,55.32
2023-05-10T16:15:31.786Z,55.88
2023-05-10T16:18:00.232Z,56.32
2023-05-10T16:20:30.195Z,56.74
2023-05-10T16:22:59.988Z,56.44
2023-05-10T16:25:28.169Z,56.63
2023-05-10T16:27:56.340Z,57.05
2023-05-10T16:30:29.732Z,57.66
2023-05-10T16:32:58.994Z,57.53
2023-05-10T16:35:27.719Z,58.09
2023-05-10T16:37:57.303Z,58.31
2023-05-10T16:40:25.938Z,58.69
2023-05-10T16:42:54.091Z,58.76
2023-05-10T16:45:22.258Z,59.45
2023-05-10T16:47:50.695Z,59.61
2023-05-10T16:50:19.027Z,59.86
2023-05-10T16:52:47.395Z,59.50
2023-05-10T16:55:15.784Z,59.41
2023-05-10T16:57:44.158Z,59.93
2023-05-10T17:00:13.055Z,60.38
2023-05-10T17:02:41.913Z,61.15
2023-05-10T17:05:10.724Z,61.67
2023-05-10T17:07:38.922Z,61.60
2023-05-10T17:10:07.790Z,61.45
2023-05-10T17:12:35.975Z,62.11
2023-05-10T17:15:05.335Z,62.24
2023-05-10T17:17:33.571Z,61.88
2023-05-10T17:20:02.961Z,62.44
2023-05-10T17:22:31.117Z,62.80
2023-05-10T17:24:59.298Z,63.44
2023-05-10T17:27:30.291Z,64.27
2023-05-10T17:29:59.379Z,64.12
2023-05-10T17:32:27.737Z,64.35
2023-05-10T17:34:56.190Z,64.79
2023-05-10T17:37:24.365Z,64.64
2023-05-10T17:39:52.543Z,65.11
2023-05-10T17:42:21.042Z,65.64
2023-05-10T17:44:49.299Z,66.12
2023-05-10T17:47:18.612Z,67.31
2023-05-10T17:49:46.977Z,67.01
2023-05-10T17:52:15.166Z,66.29
2023-05-10T17:54:45.997Z,66.16
2023-05-10T17:57:14.158Z,65.89
2023-05-10T17:59:42.567Z,67.96
2023-05-10T18:02:11.033Z,67.55
2023-05-10T18:04:43.250Z,66.56
2023-05-10T18:07:12.384Z,66.58
2023-05-10T18:09:40.562Z,67.26
2023-05-10T18:12:09.756Z,68.54
2023-05-10T18:14:41.135Z,68.44
2023-05-10T18:17:10.342Z,69.20
2023-05-10T18:19:38.594Z,68.83
2023-05-10T18:22:10.527Z,68.99
2023-05-10T18:24:41.580Z,68.82
2023-05-10T18:27:10.377Z,67.90
2023-05-10T18:29:39.778Z,68.38
2023-05-10T18:32:08.272Z,68.58
2023-05-10T18:34:36.544Z,68.45
2023-05-10T18:37:07.766Z,68.02
2023-05-10T18:39:39.255Z,67.69
2023-05-10T18:42:09.074Z,67.65
2023-05-10T18:44:37.320Z,67.34
2023-05-10T18:47:05.492Z,67.30
2023-05-10T18:49:35.097Z,67.35
2023-05-10T18:52:03.373Z,67.29
2023-05-10T18:54:31.554Z,68.80
2023-05-10T18:56:59.622Z,68.45
2023-05-10T18:59:30.867Z,68.07
2023-05-10T19:01:59.215Z,68.62
2023-05-10T19:04:27.477Z,69.35
2023-05-10T19:06:56.848Z,69.34
2023-05-10T19:09:27.150Z,68.98
2023-05-10T19:11:55.228Z,68.75
2023-05-10T19:14:25.154Z,68.99
2023-05-10T19:16:53.563Z,68.75
2023-05-10T19:19:24.303Z,69.20
2023-05-10T19:21:52.732Z,69.48
2023-05-10T19:24:24.348Z,69.88
2023-05-10T19:26:52.870Z,69.45
2023-05-10T19:29:21.045Z,69.03
2023-05-10T19:31:49.513Z,69.00
2023-05-10T19:34:18.787Z,69.14
2023-05-10T19:36:46.996Z,68.75
2023-05-10T19:39:15.482Z,69.35
2023-05-10T19:41:43.884Z,70.54
2023-05-10T19:44:12.141Z,71.22
2023-05-10T19:46:40.721Z,71.27
2023-05-10T19:49:08.998Z,72.08
2023-05-10T19:51:37.071Z,72.18
2023-05-10T19:54:05.244Z,72.01
2023-05-10T19:56:33.411Z,72.40
2023-05-10T19:59:03.534Z,71.91
2023-05-10T20:01:33.052Z,70.85
2023-05-10T20:04:01.379Z,71.16
2023-05-10T20:06:29.690Z,71.28
2023-05-10T20:08:57.764Z,71.28
2023-05-10T20:11:25.942Z,72.28
2023-05-10T20:13:54.118Z,71.65
2023-05-10T20:16:23.860Z,71.38
2023-05-10T20:18:54.763Z,71.49
2023-05-10T20:21:23.977Z,72.81
2023-05-10T20:23:52.568Z,73.80
2023-05-10T20:26:21.951Z,73.97
2023-05-10T20:28:51.045Z,74.92
2023-05-10T20:31:19.245Z,73.41
2023-05-10T20:33:47.397Z,73.59
2023-05-10T20:36:15.460Z,73.66
2023-05-10T20:38:43.536Z,73.77
2023-05-10T20:41:11.608Z,74.60
2023-05-10T20:43:39.784Z,75.03
2023-05-10T20:46:08.016Z,75.61
2023-05-10T20:48:36.345Z,74.56
2023-05-10T20:51:04.611Z,74.77
2023-05-10T20:53:32.986Z,74.51
2023-05-10T20:56:01.067Z,73.67
2023-05-10T20:58:29.237Z,74.54
2023-05-10T21:00:57.406Z,74.79
2023-05-10T21:03:25.443Z,75.45
2023-05-10T21:05:53.760Z,75.26
2023-05-10T21:08:22.032Z,74.69
2023-05-10T21:10:50.071Z,75.83
2023-05-10T21:13:18.072Z,75.15
2023-05-10T21:15:46.395Z,76.56
2023-05-10T21:18:14.360Z,75.37
2023-05-10T21:20:42.492Z,76.09
2023-05-10T21:23:10.777Z,75.21
2023-05-10T21:25:39.045Z,77.27
2023-05-10T21:28:07.231Z,76.38
2023-05-10T21:30:35.604Z,75.86
2023-05-10T21:33:04.075Z,77.23
2023-05-10T21:35:32.364Z,76.66
2023-05-10T21:38:00.534Z,76.83
2023-05-10T21:40:29.227Z,76.64
2023-05-10T21:42:57.395Z,76.65
2023-05-10T21:45:25.672Z,76.20
2023-05-10T21:47:53.771Z,76.92
2023-05-10T21:50:21.849Z,76.24
2023-05-10T21:52:50.095Z,76.47
2023-05-10T21:55:19.505Z,76.05
2023-05-10T21:57:47.784Z,76.72
2023-05-10T22:00:17.367Z,76.46
2023-05-10T22:02:46.880Z,76.53
2023-05-10T22:05:15.684Z,76.52
2023-05-10T22:07:43.848Z,76.15
2023-05-10T22:10:12.230Z,76.41
2023-05-10T22:12:40.502Z,75.96
2023-05-10T22:15:10.771Z,75.80
2023-05-10T22:17:40.637Z,77.15
2023-05-10T22:20:09.553Z,78.11
2023-05-10T22:22:37.920Z,76.70
2023-05-10T22:25:07.771Z,76.50
2023-05-10T22:27:35.898Z,77.00
2023-05-10T22:30:04.786Z,77.78
2023-05-10T22:32:33.902Z,77.34
2023-05-10T22:35:02.476Z,78.07
2023-05-10T22:37:30.844Z,77.77
2023-05-10T22:39:58.920Z,77.90
2023-05-10T22:42:26.984Z,77.86
2023-05-10T22:44:55.159Z,77.60
2023-05-10T22:47:23.146Z,77.17
2023-05-10T22:49:51.409Z,77.48
2023-05-10T22:52:19.609Z,77.79
2023-05-10T22:54:47.865Z,78.03
2023-05-10T22:57:17.411Z,78.03
2023-05-10T22:59:45.747Z,77.37
2023-05-10T23:02:15.043Z,77.91
2023-05-10T23:04:43.582Z,78.59
2023-05-10T23:07:12.004Z,77.67
2023-05-10T23:09:40.036Z,77.15
2023-05-10T23:12:08.461Z,77.64
2023-05-10T23:14:37.135Z,78.77
2023-05-10T23:17:05.248Z,78.88
2023-05-10T23:19:33.603Z,79.02
2023-05-10T23:22:01.664Z,78.75
2023-05-10T23:24:29.745Z,78.13
2023-05-10T23:26:57.793Z,77.63
2023-05-10T23:29:26.808Z,77.96
2023-05-10T23:31:54.991Z,77.85
2023-05-10T23:34:23.151Z,77.88
2023-05-10T23:36:51.221Z,77.80
2023-05-10T23:39:19.295Z,77.60
2023-05-10T23:41:48.089Z,77.30
2023-05-10T23:44:16.775Z,77.00
2023-05-10T23:46:44.845Z,76.69
2023-05-10T23:49:13.038Z,77.16
2023-05-10T23:51:41.223Z,77.07
2023-05-10T23:54:09.479Z,76.97
2023-05-10T23:56:37.547Z,77.00
2023-05-10T23:59:08.589Z,77.63
